AirNav   ATP
 
 1567 users online  

D20 Yale Airport
Yale, Michigan, USA

GOING TO YALE?


FAA INFORMATION EFFECTIVE 16 AUGUST 2018

Location

FAA Identifier: D20
Lat/Long: 43-06-45.0940N / 082-47-14.7460W
43-06.751567N / 082-47.245767W
43.1125261 / -82.7874294
(estimated)
Elevation: 814 ft. / 248 m (estimated)
Variation: 06W (1985)
From city: 1 mile SE of YALE, MI
Time zone: UTC -4 (UTC -5 during Standard Time)
Zip code: 48097

Airport Operations

Airport use: Open to the public
Activation date: 07/1948
Control tower: no
ARTCC: CLEVELAND CENTER
FSS: LANSING FLIGHT SERVICE STATION
NOTAMs facility: LAN (NOTAM-D service available)
Attendance: IREG
Wind indicator: yes
Segmented circle: yes

Airport Communications

CTAF: 122.9
WX AWOS-3 at PHN (17 nm SE): 118.375 (810-364-7787)

Airport Services

Parking: tiedowns
Airframe service: NONE
Bottled oxygen: NONE
Bulk oxygen: NONE

Runway Information

Runway 9/27

Dimensions: 2300 x 110 ft. / 701 x 34 m
Surface: turf, in good condition
Runway edge markings: 09/27 & DSPLCD THLDS MKD WITH CONES.
RUNWAY 9  RUNWAY 27
Latitude: 43-06.751333N43-06.751333N
Longitude: 082-47.504000W082-46.987167W
Elevation: 814.0 ft.814.0 ft.
Traffic pattern: leftleft
Displaced threshold: 315 ft.300 ft.
Runway end identifier lights: nono
Obstructions: 15 ft. road, 42 ft. from runway, 2:1 slope to clear
APCH RATIO 25:1 AT DSPLCD THLD, +25 FT POWERLINE 633 FT DSTC.
6 ft. brush, 25 ft. from runway, 4:1 slope to clear
APCH RATIO 20:1 AT DSPLCD THLD. +76 FT TREES 1578 FT DSTC.

Airport Ownership and Management from official FAA records

Ownership: Privately-owned
Owner: JERRY L. NORRIS
7387 BROCKWAY RD
YALE, MI 48097
Phone 810-387-2173
Manager: JERRY L. NORRIS
7387 BROCKWAY RD
YALE, MI 48097
Phone 810-387-2173

Airport Operational Statistics

Aircraft based on the field: 1
Single engine airplanes: 1
    
Aircraft operations: 100/year *
100% transient general aviation
* for 12-month period ending 31 December 2014

Additional Remarks

RY 09 HAS +25 FT PLINE 345 FT DIST.
RY 09/27 SOFT IN SPRING.

Instrument Procedures

There are no published instrument procedures at D20.

Some nearby airports with instrument procedures:

KPHN - St Clair County International Airport (17 nm SE)
77G - Marlette Airport (18 nm NW)
D98 - Romeo State Airport (21 nm SW)
D95 - Dupont-Lapeer Airport (21 nm W)
57D - Ray Community Airport (23 nm S)
 
Loc | Ops | Rwys | IFR | FBO | Links
Com | Nav | Svcs | Stats | Notes


 
Area around D20 (Yale Airport)
 
Road maps at: MapQuest Bing Google
 
Aerial photo
WARNING: Photo may not be current or correct
Aerial photo of D20 (Yale Airport)
Photo by Katie D.
Photo taken 09-Jul-2009
looking East.

Do you have a better or more recent aerial photo of Yale Airport that you would like to share? If so, please send us your photo.

 
Sectional chart

 
Airport distance calculator
Flying to Yale Airport? Find the distance to fly.

From to D20

Sunrise and sunset
Times for 21-Aug-2018
 Local
(UTC-4)
 Zulu
(UTC)
Morning civil twilight06:1410:14
Sunrise06:4410:44
Sunset20:2400:24
Evening civil twilight20:5400:54

Current date and time
Zulu (UTC)  21-Aug-2018 14:19:04
Local (UTC-4)  21-Aug-2018 10:19:04
 
METAR
KPHN 
17nm SE 
211355Z AUTO 19004KT 10SM -RA SCT010 SCT029 BKN048 22/21 A2975 RMK AO2
KD95 
21nm W 
211355Z AUTO 19003KT 10SM OVC009 22/21 A2977 RMK AO2 T02180214
CYZR 
22nm E 
210802Z AUTO 12008KT 1 1/4SM +TSRA BR SCT013 BKN025 OVC090 21/21 A2984 RMK LTNG DIST NE E RVR MISG SLP102 DENSITY ALT 1500FT
KMTC 
30nm S 
211356Z 20007KT 10SM SCT012 SCT024 BKN120 23/23 A2973 RMK AO2A RAE29 SCT024 V BKN SLP069 ALSTG/SLP ESTMD T02340234 $
TAF
CYZR 
22nm E 
210802Z 2108/2120 15008KT P6SM SCT015 OVC040 TEMPO 2108/2109 1SM +TSRA BR BKN015 OVC030 FM210900 18012KT P6SM FEW015 BKN030 OVC150 TEMPO 2109/2113 5SM -SHRA BR BKN015 BECMG 2109/2111 18012G22KT FM211300 17012KT P6SM -SHRA SCT007 BKN012 OVC070 TEMPO 2113/2117 4SM SHRA BR OVC007 PROB30 2113/2117 2SM TSRA BR BKN007 OVC015CB FM211700 20012KT P6SM OVC012 TEMPO 2117/2120 5SM -SHRA BR OVC008 RMK FCST BASED ON AUTO OBS. NXT FCST BY 211400Z
NOTAMs
Click for the latest NOTAMs
NOTAMs are issued by the DoD/FAA and will open in a separate window not controlled by AirNav.

 

 
 

Would you like to see your business listed on this page?

 If your business provides an interesting product or service to pilots, flight crews, aircraft, or users of the Yale Airport, you should consider listing it here.  To start the listing process, click on the button below
 
Add a business
 

Other Pages about Yale Airport

Page from the Michigan Airport Directory (PDF)
 
Update a link
 
Copyright © AirNav, LLC. All rights reserved. Privacy Policy  Contact